createdAt,value
2018-04-07T00:07:26.215Z,1009.5
2018-04-07T00:17:40.579Z,1009.6
2018-04-07T00:27:55.027Z,1009.4
2018-04-07T00:38:08.685Z,1009.5
2018-04-07T00:48:28.143Z,1009.5
2018-04-07T00:58:43.485Z,1009.4
2018-04-07T01:08:58.067Z,1009.4
2018-04-07T01:19:11.583Z,1009.4
2018-04-07T01:29:23.312Z,1009.3
2018-04-07T01:39:36.937Z,1009.3
2018-04-07T01:49:51.960Z,1009.2
2018-04-07T02:00:07.928Z,1009.1
2018-04-07T02:10:21.606Z,1009.1
2018-04-07T02:20:42.700Z,1008.9
2018-04-07T02:31:12.677Z,1008.8
2018-04-07T02:41:26.679Z,1008.6
2018-04-07T02:51:38.865Z,1008.6
2018-04-07T03:01:53.899Z,1008.6
2018-04-07T03:12:19.871Z,1008.7
2018-04-07T03:22:34.460Z,1008.6
2018-04-07T03:32:46.397Z,1008.7
2018-04-07T03:43:00.499Z,1008.6
2018-04-07T03:53:15.041Z,1008.5
2018-04-07T04:03:29.302Z,1008.6
2018-04-07T04:13:43.259Z,1008.4
2018-04-07T04:23:57.856Z,1008.3
2018-04-07T04:34:43.113Z,1008.2
2018-04-07T04:45:04.987Z,1008.1
2018-04-07T05:05:36.358Z,1008.1
2018-04-07T05:15:53.279Z,1008.1
2018-04-07T05:26:09.719Z,1008.2
2018-04-07T05:36:23.532Z,1008.1
2018-04-07T05:46:37.946Z,1008.0
2018-04-07T05:56:51.684Z,1008.0
2018-04-07T06:07:12.610Z,1007.9
2018-04-07T06:17:26.342Z,1008.0
2018-04-07T06:28:12.097Z,1007.9
2018-04-07T06:38:56.897Z,1007.9
2018-04-07T06:49:41.380Z,1007.9
2018-04-07T06:59:55.517Z,1008.0
2018-04-07T07:10:09.188Z,1007.9
2018-04-07T07:20:43.714Z,1007.8
2018-04-07T07:42:03.033Z,1007.9
2018-04-07T07:52:17.376Z,1007.9
2018-04-07T08:13:19.293Z,1007.5
2018-04-07T08:24:21.855Z,1007.4
2018-04-07T08:34:35.573Z,1007.4
2018-04-07T08:44:49.788Z,1007.3
2018-04-07T08:55:04.190Z,1007.2
2018-04-07T09:05:18.460Z,1007.0
2018-04-07T09:15:33.169Z,1006.9
2018-04-07T09:25:47.210Z,1006.8
2018-04-07T09:36:01.192Z,1007.0
2018-04-07T09:46:15.494Z,1007.0
2018-04-07T09:56:29.871Z,1006.7
2018-04-07T10:07:48.998Z,1006.5
2018-04-07T10:18:03.531Z,1006.4
2018-04-07T10:28:17.424Z,1006.3
2018-04-07T10:38:34.099Z,1006.1
2018-04-07T10:48:45.573Z,1006.0
2018-04-07T10:58:58.398Z,1005.9
2018-04-07T11:10:50.448Z,1005.8
2018-04-07T11:21:55.224Z,1005.8
2018-04-07T11:32:09.107Z,1005.8
2018-04-07T11:42:23.329Z,1005.5
2018-04-07T11:53:27.914Z,1005.4
2018-04-07T12:04:08.148Z,1005.5
2018-04-07T12:14:59.205Z,1005.7
2018-04-07T12:31:54.804Z,1005.6
2018-04-07T12:47:50.550Z,1005.5
2018-04-07T12:58:39.147Z,1005.2
2018-04-07T13:12:22.048Z,1005.3
2018-04-07T13:23:09.045Z,1005.2
2018-04-07T13:33:21.902Z,1005.0
2018-04-07T13:44:36.035Z,1004.9
2018-04-07T13:55:43.744Z,1004.9
2018-04-07T14:05:57.492Z,1004.7
2018-04-07T14:16:12.019Z,1004.5
2018-04-07T14:26:25.742Z,1004.1
2018-04-07T14:36:37.250Z,1003.9
2018-04-07T14:57:05.872Z,1004.3
2018-04-07T15:07:19.853Z,1004.8
2018-04-07T15:17:34.230Z,1004.2
2018-04-07T15:27:49.058Z,1004.0
2018-04-07T15:38:46.302Z,1004.0
2018-04-07T15:49:00.633Z,1003.8
2018-04-07T15:59:17.146Z,1003.8
2018-04-07T16:09:29.236Z,1003.9
2018-04-07T16:20:14.005Z,1003.8
2018-04-07T16:30:28.270Z,1003.8
2018-04-07T16:40:44.220Z,1003.9
2018-04-07T16:50:59.114Z,1004.0
2018-04-07T17:01:13.864Z,1004.1
2018-04-07T17:12:00.957Z,1004.0
2018-04-07T17:22:12.821Z,1003.9
2018-04-07T17:33:01.349Z,1003.9
2018-04-07T17:46:08.784Z,1003.9
2018-04-07T18:11:01.612Z,1004.1
2018-04-07T18:21:47.533Z,1004.2
2018-04-07T18:50:32.142Z,1004.6
2018-04-07T19:00:47.859Z,1004.7
2018-04-07T19:12:01.246Z,1004.7
2018-04-07T19:24:34.910Z,1004.9
2018-04-07T19:34:50.201Z,1004.9
2018-04-07T20:09:28.428Z,1005.0
2018-04-07T20:19:45.565Z,1005.0
2018-04-07T20:30:32.873Z,1005.0
2018-04-07T20:44:03.168Z,1005.1
2018-04-07T20:54:16.802Z,1005.1
2018-04-07T21:04:31.458Z,1005.2
2018-04-07T21:14:45.379Z,1005.1
2018-04-07T21:24:59.588Z,1005.1
2018-04-07T21:35:13.994Z,1005.1
2018-04-07T21:45:26.090Z,1005.0
2018-04-07T21:56:11.500Z,1004.9
2018-04-07T22:06:24.959Z,1004.9
2018-04-07T22:16:39.408Z,1004.9
2018-04-07T22:26:53.463Z,1004.9
2018-04-07T22:37:40.020Z,1004.8
2018-04-07T22:47:52.674Z,1004.8
2018-04-07T22:58:06.782Z,1004.8
2018-04-07T23:08:52.423Z,1004.8
2018-04-07T23:19:05.680Z,1004.8
2018-04-07T23:29:51.457Z,1004.8
2018-04-07T23:40:37.101Z,1004.8
2018-04-07T23:51:22.027Z,1004.8
